createdAt,value
2023-04-28T00:01:53.155Z,9.84
2023-04-28T00:04:31.159Z,9.84
2023-04-28T00:07:03.340Z,9.85
2023-04-28T00:09:38.978Z,9.78
2023-04-28T00:12:12.879Z,9.69
2023-04-28T00:14:49.786Z,9.74
2023-04-28T00:17:24.966Z,9.52
2023-04-28T00:20:02.691Z,9.64
2023-04-28T00:22:39.580Z,9.62
2023-04-28T00:25:19.115Z,9.62
2023-04-28T00:27:55.261Z,9.58
2023-04-28T00:30:35.431Z,9.52
2023-04-28T00:33:18.708Z,9.59
2023-04-28T00:35:56.803Z,9.55
2023-04-28T00:38:31.053Z,9.32
2023-04-28T00:41:08.773Z,9.48
2023-04-28T00:43:55.551Z,9.43
2023-04-28T00:46:41.212Z,9.44
2023-04-28T00:49:22.088Z,9.26
2023-04-28T00:51:58.134Z,9.26
2023-04-28T00:54:37.216Z,9.32
2023-04-28T00:57:14.415Z,9.33
2023-04-28T01:00:01.959Z,9.26
2023-04-28T01:02:53.224Z,9.19
2023-04-28T01:05:35.195Z,9.11
2023-04-28T01:08:21.579Z,9.12
2023-04-28T01:10:59.673Z,9.11
2023-04-28T01:13:58.555Z,9.05
2023-04-28T01:16:36.872Z,9.09
2023-04-28T01:19:26.942Z,9.11
2023-04-28T01:21:59.948Z,9.12
2023-04-28T01:24:35.782Z,8.97
2023-04-28T01:27:11.974Z,9.09
2023-04-28T01:29:56.069Z,9.17
2023-04-28T01:32:30.874Z,9.18
2023-04-28T01:35:05.294Z,9.11
2023-04-28T01:37:41.788Z,8.95
2023-04-28T01:40:23.312Z,9.04
2023-04-28T01:42:59.378Z,9.04
2023-04-28T01:45:46.789Z,9.03
2023-04-28T01:48:22.227Z,8.98
2023-04-28T01:50:56.014Z,8.91
2023-04-28T01:53:32.336Z,8.94
2023-04-28T01:56:14.773Z,8.89
2023-04-28T01:58:57.613Z,8.76
2023-04-28T02:01:39.141Z,8.80
2023-04-28T02:04:22.930Z,8.77
2023-04-28T02:07:01.605Z,8.56
2023-04-28T02:09:41.370Z,8.60
2023-04-28T02:12:23.998Z,8.57
2023-04-28T02:15:00.655Z,8.50
2023-04-28T02:17:34.049Z,8.45
2023-04-28T02:20:11.415Z,8.34
2023-04-28T02:22:48.574Z,8.30
2023-04-28T02:25:25.235Z,8.27
2023-04-28T02:28:04.563Z,8.21
2023-04-28T02:30:55.270Z,8.12
2023-04-28T02:33:34.597Z,8.08
2023-04-28T02:36:23.015Z,8.07
2023-04-28T02:39:01.142Z,8.02
2023-04-28T02:41:38.816Z,8.00
2023-04-28T02:44:27.291Z,7.89
2023-04-28T02:47:12.489Z,7.90
2023-04-28T02:50:01.132Z,7.83
2023-04-28T02:52:35.139Z,7.81
2023-04-28T02:55:25.566Z,7.73
2023-04-28T02:58:00.525Z,7.75
2023-04-28T03:00:40.095Z,7.46
2023-04-28T03:03:24.072Z,7.71
2023-04-28T03:05:58.440Z,7.67
2023-04-28T03:08:33.242Z,7.66
2023-04-28T03:11:11.371Z,7.61
2023-04-28T03:13:48.232Z,7.59
2023-04-28T03:16:35.870Z,7.55
2023-04-28T03:19:13.669Z,7.56
2023-04-28T03:21:54.512Z,7.55
2023-04-28T03:24:46.028Z,7.50
2023-04-28T03:27:26.717Z,7.52
2023-04-28T03:30:03.106Z,7.52
2023-04-28T03:32:44.277Z,7.51
2023-04-28T03:35:25.556Z,7.48
2023-04-28T03:38:11.041Z,7.46
2023-04-28T03:40:48.065Z,7.43
2023-04-28T03:43:39.924Z,7.39
2023-04-28T03:46:20.771Z,7.43
2023-04-28T03:48:57.392Z,7.47
2023-04-28T03:51:34.444Z,7.45
2023-04-28T03:54:14.082Z,7.47
2023-04-28T03:56:49.540Z,7.45
2023-04-28T03:59:23.703Z,7.37
2023-04-28T04:01:54.542Z,7.44
2023-04-28T04:04:44.679Z,7.46
2023-04-28T04:07:18.728Z,7.43
2023-04-28T04:10:03.859Z,7.40
2023-04-28T04:12:46.319Z,7.38
2023-04-28T04:15:22.223Z,7.28
2023-04-28T04:18:03.125Z,7.41
2023-04-28T04:20:58.697Z,7.44
2023-04-28T04:23:40.630Z,7.50
2023-04-28T04:26:17.408Z,7.47
2023-04-28T04:28:56.938Z,7.43
2023-04-28T04:31:46.258Z,7.60
2023-04-28T04:34:24.933Z,7.61
2023-04-28T04:36:59.250Z,7.67
2023-04-28T04:39:37.236Z,7.75
2023-04-28T04:42:24.196Z,7.62
2023-04-28T04:45:18.491Z,7.84
2023-04-28T04:47:54.304Z,7.79
2023-04-28T04:50:29.160Z,7.89
2023-04-28T04:53:13.334Z,8.06
2023-04-28T04:55:53.118Z,8.11
2023-04-28T04:58:29.634Z,8.18
2023-04-28T05:01:12.756Z,8.31
2023-04-28T05:03:49.020Z,8.32
2023-04-28T05:06:25.866Z,8.47
2023-04-28T05:09:02.716Z,8.51
2023-04-28T05:11:43.973Z,8.55
2023-04-28T05:17:01.783Z,8.72
2023-04-28T05:19:48.092Z,8.81
2023-04-28T05:22:24.828Z,8.89
2023-04-28T05:25:02.063Z,8.98
2023-04-28T05:27:35.940Z,9.09
2023-04-28T05:30:19.474Z,9.13
2023-04-28T05:33:01.461Z,9.02
2023-04-28T05:35:39.465Z,9.23
2023-04-28T05:38:22.133Z,9.34
2023-04-28T05:41:00.125Z,9.40
2023-04-28T05:43:40.284Z,9.46
2023-04-28T05:46:29.242Z,9.39
2023-04-28T05:49:19.854Z,9.70
2023-04-28T05:52:02.359Z,9.81
2023-04-28T05:54:44.946Z,9.78
2023-04-28T05:57:20.853Z,10.00
2023-04-28T05:59:52.456Z,10.08
2023-04-28T06:02:29.986Z,10.18
2023-04-28T06:05:12.298Z,10.21
2023-04-28T06:07:50.101Z,10.31
2023-04-28T06:10:23.713Z,10.39
2023-04-28T06:13:02.307Z,10.47
2023-04-28T06:15:44.204Z,10.62
2023-04-28T06:18:22.811Z,10.75
2023-04-28T06:21:09.660Z,10.88
2023-04-28T06:23:46.488Z,10.97
2023-04-28T06:26:27.168Z,11.05
2023-04-28T06:29:09.384Z,10.98
2023-04-28T06:31:47.419Z,11.08
2023-04-28T06:34:31.856Z,11.33
2023-04-28T06:37:11.402Z,11.38
2023-04-28T06:39:48.082Z,11.44
2023-04-28T06:42:23.332Z,11.55
2023-04-28T06:45:09.490Z,11.58
2023-04-28T06:47:41.227Z,11.69
2023-04-28T06:50:18.220Z,11.80
2023-04-28T06:52:51.214Z,11.87
2023-04-28T06:55:34.930Z,11.99
2023-04-28T06:58:07.394Z,12.09
2023-04-28T07:00:46.193Z,12.15
2023-04-28T07:03:27.919Z,12.15
2023-04-28T07:06:04.656Z,12.39
2023-04-28T07:08:40.852Z,12.35
2023-04-28T07:11:15.620Z,12.58
2023-04-28T07:13:55.314Z,12.73
2023-04-28T07:16:33.190Z,12.82
2023-04-28T07:19:08.920Z,12.83
2023-04-28T07:21:49.791Z,13.03
2023-04-28T07:24:25.834Z,13.14
2023-04-28T07:27:11.248Z,13.23
2023-04-28T07:29:45.664Z,13.32
2023-04-28T07:32:19.304Z,13.39
2023-04-28T07:35:00.431Z,13.45
2023-04-28T07:37:40.044Z,13.44
2023-04-28T07:40:16.963Z,13.47
2023-04-28T07:42:55.421Z,13.69
2023-04-28T07:45:36.831Z,13.77
2023-04-28T07:48:20.812Z,13.83
2023-04-28T07:51:01.346Z,13.89
2023-04-28T07:53:35.989Z,13.95
2023-04-28T07:56:24.151Z,13.88
2023-04-28T07:59:03.590Z,13.82
2023-04-28T08:01:36.703Z,13.81
2023-04-28T08:04:25.069Z,13.86
2023-04-28T08:07:05.095Z,13.93
2023-04-28T08:09:44.798Z,13.93
2023-04-28T08:12:20.329Z,14.14
2023-04-28T08:14:57.449Z,14.23
2023-04-28T08:17:32.575Z,14.35
2023-04-28T08:20:21.071Z,14.53
2023-04-28T08:23:12.252Z,14.33
2023-04-28T08:25:55.755Z,14.51
2023-04-28T08:28:45.329Z,14.56
2023-04-28T08:31:24.150Z,14.65
2023-04-28T08:34:01.914Z,14.74
2023-04-28T08:36:42.962Z,14.78
2023-04-28T08:39:20.861Z,14.95
2023-04-28T08:41:58.597Z,15.07
2023-04-28T08:44:37.197Z,15.18
2023-04-28T08:47:15.444Z,15.31
2023-04-28T08:49:51.034Z,15.41
2023-04-28T08:52:32.970Z,15.46
2023-04-28T08:55:11.354Z,15.68
2023-04-28T08:57:53.831Z,15.75
2023-04-28T09:00:26.984Z,15.79
2023-04-28T09:03:09.395Z,15.87
2023-04-28T09:05:51.607Z,15.87
2023-04-28T09:08:33.561Z,15.79
2023-04-28T09:11:13.946Z,15.94
2023-04-28T09:13:50.597Z,15.94
2023-04-28T09:16:30.015Z,15.97
2023-04-28T09:19:06.186Z,16.11
2023-04-28T09:21:50.720Z,16.20
2023-04-28T09:24:42.040Z,16.08
2023-04-28T09:27:18.956Z,16.19
2023-04-28T09:29:58.219Z,16.20
2023-04-28T09:32:35.715Z,16.13
2023-04-28T09:35:17.244Z,16.13
2023-04-28T09:37:52.777Z,16.19
2023-04-28T09:40:33.579Z,16.32
2023-04-28T09:43:21.012Z,16.44
2023-04-28T09:45:59.388Z,16.60
2023-04-28T09:48:44.183Z,16.78
2023-04-28T09:51:25.261Z,16.84
2023-04-28T09:54:00.840Z,16.86
2023-04-28T09:56:44.645Z,16.90
2023-04-28T09:59:21.873Z,16.91
2023-04-28T10:01:55.189Z,16.90
2023-04-28T10:04:34.214Z,16.94
2023-04-28T10:07:10.616Z,17.08
2023-04-28T10:09:51.607Z,17.19
2023-04-28T10:12:35.372Z,17.20
2023-04-28T10:15:16.761Z,17.27
2023-04-28T10:17:51.064Z,17.38
2023-04-28T10:20:28.474Z,17.40
2023-04-28T10:23:13.642Z,17.28
2023-04-28T10:25:55.614Z,17.45
2023-04-28T10:28:38.648Z,17.39
2023-04-28T10:31:21.625Z,17.46
2023-04-28T10:34:03.232Z,17.58
2023-04-28T10:37:00.337Z,17.71
2023-04-28T10:39:41.045Z,17.83
2023-04-28T10:42:45.420Z,17.91
2023-04-28T10:45:58.096Z,18.07
2023-04-28T10:49:10.652Z,17.99
2023-04-28T10:51:48.832Z,18.01
2023-04-28T10:54:32.193Z,18.07
2023-04-28T10:57:26.168Z,18.31
2023-04-28T11:00:33.990Z,18.41
2023-04-28T11:03:06.956Z,18.59
2023-04-28T11:05:39.841Z,18.75
2023-04-28T11:08:38.809Z,18.71
2023-04-28T11:11:30.138Z,18.75
2023-04-28T11:14:33.186Z,18.88
2023-04-28T11:17:22.646Z,18.93
2023-04-28T11:20:01.421Z,19.11
2023-04-28T11:22:40.759Z,19.16
2023-04-28T11:25:27.427Z,19.23
2023-04-28T11:28:13.047Z,19.33
2023-04-28T11:30:52.568Z,19.35
2023-04-28T11:33:39.131Z,19.46
2023-04-28T11:36:26.053Z,19.52
2023-04-28T11:39:03.433Z,19.72
2023-04-28T11:41:41.490Z,19.67
2023-04-28T11:44:24.046Z,19.62
2023-04-28T11:47:03.464Z,19.72
2023-04-28T11:49:54.612Z,19.81
2023-04-28T11:52:34.767Z,19.80
2023-04-28T11:58:30.699Z,19.92
2023-04-28T12:01:28.601Z,19.73
2023-04-28T12:04:04.677Z,19.44
2023-04-28T12:06:41.331Z,19.35
2023-04-28T12:09:30.840Z,19.54
2023-04-28T12:12:22.951Z,19.59
2023-04-28T12:15:09.572Z,19.75
2023-04-28T12:17:50.323Z,20.03
2023-04-28T12:20:45.860Z,20.17
2023-04-28T12:23:37.300Z,20.10
2023-04-28T12:26:12.701Z,20.38
2023-04-28T12:28:49.522Z,20.57
2023-04-28T12:31:30.649Z,20.78
2023-04-28T12:34:13.516Z,20.83
2023-04-28T12:36:50.208Z,20.82
2023-04-28T12:39:30.598Z,20.74
2023-04-28T12:42:08.806Z,20.77
2023-04-28T12:44:50.405Z,20.76
2023-04-28T12:47:24.909Z,20.62
2023-04-28T12:49:58.873Z,20.96
2023-04-28T12:52:42.430Z,21.26
2023-04-28T12:55:25.070Z,21.44
2023-04-28T12:58:02.360Z,21.61
2023-04-28T13:00:39.601Z,21.70
2023-04-28T13:03:22.113Z,21.86
2023-04-28T13:05:56.144Z,21.91
2023-04-28T13:08:31.934Z,21.87
2023-04-28T13:11:22.444Z,21.99
2023-04-28T13:14:04.124Z,22.02
2023-04-28T13:16:52.587Z,22.11
2023-04-28T13:19:34.352Z,22.07
2023-04-28T13:22:17.178Z,22.08
2023-04-28T13:25:03.215Z,22.36
2023-04-28T13:27:48.564Z,22.41
2023-04-28T13:30:25.141Z,22.48
2023-04-28T13:33:07.057Z,22.41
2023-04-28T13:35:47.400Z,22.45
2023-04-28T13:38:23.242Z,22.41
2023-04-28T13:41:00.651Z,22.40
2023-04-28T13:43:46.204Z,22.42
2023-04-28T13:46:26.429Z,22.42
2023-04-28T13:49:07.219Z,22.67
2023-04-28T13:51:42.481Z,22.59
2023-04-28T13:54:22.636Z,22.59
2023-04-28T13:57:05.458Z,22.66
2023-04-28T13:59:46.105Z,22.68
2023-04-28T14:02:31.615Z,22.72
2023-04-28T14:05:07.377Z,22.77
2023-04-28T14:07:44.984Z,22.82
2023-04-28T14:10:29.110Z,22.90
2023-04-28T14:13:09.473Z,23.05
2023-04-28T14:15:58.639Z,23.11
2023-04-28T14:18:40.505Z,23.11
2023-04-28T14:21:15.888Z,23.15
2023-04-28T14:23:51.061Z,23.31
2023-04-28T14:26:35.354Z,23.11
2023-04-28T14:29:16.679Z,23.15
2023-04-28T14:31:53.595Z,23.01
2023-04-28T14:34:31.346Z,22.97
2023-04-28T14:37:22.943Z,22.68
2023-04-28T14:40:08.244Z,22.57
2023-04-28T14:42:50.873Z,22.53
2023-04-28T14:45:30.796Z,22.44
2023-04-28T14:48:11.057Z,22.34
2023-04-28T14:50:53.194Z,22.28
2023-04-28T14:53:37.825Z,22.17
2023-04-28T14:56:20.367Z,22.02
2023-04-28T14:58:57.835Z,21.91
2023-04-28T15:01:44.042Z,21.81
2023-04-28T15:04:31.143Z,21.76
2023-04-28T15:07:07.794Z,21.63
2023-04-28T15:09:56.298Z,21.54
2023-04-28T15:12:32.701Z,21.46
2023-04-28T15:15:09.632Z,21.39
2023-04-28T15:17:54.528Z,21.33
2023-04-28T15:20:44.734Z,21.23
2023-04-28T15:23:23.746Z,21.15
2023-04-28T15:26:09.737Z,21.07
2023-04-28T15:28:40.711Z,20.95
2023-04-28T15:31:12.280Z,20.79
2023-04-28T15:33:48.257Z,20.75
2023-04-28T15:36:37.723Z,20.72
2023-04-28T15:39:09.250Z,20.66
2023-04-28T15:41:45.650Z,20.57
2023-04-28T15:44:22.858Z,20.50
2023-04-28T15:47:02.723Z,20.44
2023-04-28T15:49:42.855Z,20.32
2023-04-28T15:52:19.952Z,20.24
2023-04-28T15:54:52.110Z,20.03
2023-04-28T15:57:31.788Z,20.20
2023-04-28T16:00:06.899Z,20.18
2023-04-28T16:02:50.380Z,20.17
2023-04-28T16:05:29.290Z,20.16
2023-04-28T16:08:07.279Z,19.85
2023-04-28T16:10:42.827Z,19.93
2023-04-28T16:13:22.612Z,19.91
2023-04-28T16:16:04.587Z,19.85
2023-04-28T16:18:51.728Z,19.80
2023-04-28T16:21:29.637Z,19.71
2023-04-28T16:24:17.347Z,19.63
2023-04-28T16:26:54.844Z,19.44
2023-04-28T16:29:38.789Z,19.40
2023-04-28T16:32:15.001Z,19.38
2023-04-28T16:34:53.319Z,19.27
2023-04-28T16:37:31.312Z,19.16
2023-04-28T16:40:11.333Z,19.14
2023-04-28T16:42:49.310Z,19.17
2023-04-28T16:45:24.977Z,18.90
2023-04-28T16:48:05.681Z,19.09
2023-04-28T16:50:47.926Z,19.02
2023-04-28T16:53:23.454Z,19.05
2023-04-28T16:56:02.583Z,18.99
2023-04-28T16:58:35.496Z,18.99
2023-04-28T17:01:19.531Z,18.95
2023-04-28T17:03:58.081Z,18.85
2023-04-28T17:06:33.500Z,18.67
2023-04-28T17:09:31.653Z,18.73
2023-04-28T17:12:16.256Z,18.72
2023-04-28T17:14:51.389Z,18.63
2023-04-28T17:17:32.383Z,18.53
2023-04-28T17:20:18.493Z,18.48
2023-04-28T17:22:57.736Z,18.40
2023-04-28T17:25:38.870Z,18.35
2023-04-28T17:28:14.738Z,18.25
2023-04-28T17:30:50.508Z,17.79
2023-04-28T17:33:31.635Z,18.15
2023-04-28T17:36:14.388Z,18.10
2023-04-28T17:38:52.219Z,17.89
2023-04-28T17:41:28.409Z,17.94
2023-04-28T17:44:11.134Z,17.87
2023-04-28T17:46:46.999Z,17.83
2023-04-28T17:49:24.242Z,17.80
2023-04-28T17:52:01.176Z,17.58
2023-04-28T17:54:40.134Z,17.64
2023-04-28T17:57:14.430Z,17.63
2023-04-28T17:59:56.051Z,17.59
2023-04-28T18:02:34.859Z,17.41
2023-04-28T18:05:14.451Z,17.43
2023-04-28T18:07:53.629Z,17.33
2023-04-28T18:10:29.820Z,17.16
2023-04-28T18:13:10.823Z,17.28
2023-04-28T18:15:49.498Z,16.87
2023-04-28T18:18:27.215Z,17.03
2023-04-28T18:21:19.027Z,17.14
2023-04-28T18:24:26.631Z,17.02
2023-04-28T18:27:04.204Z,16.97
2023-04-28T18:29:36.047Z,16.96
2023-04-28T18:32:18.841Z,16.91
2023-04-28T18:34:54.844Z,16.91
2023-04-28T18:37:31.823Z,16.98
2023-04-28T18:40:06.589Z,16.91
2023-04-28T18:42:45.542Z,16.98
2023-04-28T18:45:33.380Z,16.84
2023-04-28T18:48:12.613Z,16.83
2023-04-28T18:50:56.750Z,16.82
2023-04-28T18:53:35.694Z,16.83
2023-04-28T18:56:11.583Z,16.64
2023-04-28T18:58:52.541Z,16.76
2023-04-28T19:01:31.910Z,16.76
2023-04-28T19:04:09.623Z,16.69
2023-04-28T19:06:47.765Z,16.61
2023-04-28T19:09:26.786Z,16.61
2023-04-28T19:12:00.788Z,16.49
2023-04-28T19:14:39.884Z,16.58
2023-04-28T19:17:12.966Z,16.47
2023-04-28T19:19:52.066Z,16.53
2023-04-28T19:22:42.532Z,16.57
2023-04-28T19:25:16.073Z,16.54
2023-04-28T19:28:14.932Z,16.49
2023-04-28T19:30:54.205Z,16.41
2023-04-28T19:33:34.175Z,16.46
2023-04-28T19:36:12.259Z,16.38
2023-04-28T19:38:48.812Z,16.34
2023-04-28T19:41:21.695Z,16.13
2023-04-28T19:44:11.714Z,16.29
2023-04-28T19:46:49.992Z,16.22
2023-04-28T19:49:33.219Z,16.12
2023-04-28T19:52:18.805Z,16.09
2023-04-28T19:55:05.133Z,15.96
2023-04-28T19:57:56.091Z,15.94
2023-04-28T20:00:36.193Z,15.98
2023-04-28T20:03:11.187Z,15.95
2023-04-28T20:05:46.952Z,15.91
2023-04-28T20:08:27.336Z,15.94
2023-04-28T20:11:17.818Z,15.88
2023-04-28T20:13:59.518Z,15.87
2023-04-28T20:16:37.412Z,15.80
2023-04-28T20:19:18.597Z,15.84
2023-04-28T20:22:08.379Z,15.80
2023-04-28T20:24:45.860Z,15.79
2023-04-28T20:27:26.503Z,15.79
2023-04-28T20:30:01.423Z,15.81
2023-04-28T20:32:44.110Z,15.80
2023-04-28T20:35:34.226Z,15.78
2023-04-28T20:38:15.828Z,15.75
2023-04-28T20:40:54.024Z,15.41
2023-04-28T20:43:41.397Z,15.75
2023-04-28T20:46:22.628Z,15.69
2023-04-28T20:49:07.702Z,15.57
2023-04-28T20:51:46.605Z,15.64
2023-04-28T20:54:21.811Z,15.58
2023-04-28T20:57:10.504Z,15.56
2023-04-28T20:59:47.589Z,15.56
2023-04-28T21:02:21.882Z,15.46
2023-04-28T21:05:05.643Z,15.47
2023-04-28T21:07:42.628Z,15.46
2023-04-28T21:10:22.392Z,15.44
2023-04-28T21:13:11.714Z,15.40
2023-04-28T21:15:47.705Z,15.29
2023-04-28T21:18:23.244Z,15.39
2023-04-28T21:21:06.010Z,15.36
2023-04-28T21:23:47.250Z,15.33
2023-04-28T21:26:30.209Z,15.24
2023-04-28T21:29:17.871Z,15.40
2023-04-28T21:31:56.700Z,15.39
2023-04-28T21:34:38.911Z,15.38
2023-04-28T21:37:19.873Z,15.36
2023-04-28T21:39:53.922Z,15.34
2023-04-28T21:42:33.310Z,15.33
2023-04-28T21:45:21.450Z,15.33
2023-04-28T21:48:04.723Z,15.30
2023-04-28T21:50:43.885Z,15.28
2023-04-28T21:53:19.448Z,15.29
2023-04-28T21:55:54.109Z,15.33
2023-04-28T21:58:35.080Z,15.34
2023-04-28T22:01:11.213Z,15.35
2023-04-28T22:03:43.188Z,15.28
2023-04-28T22:06:18.501Z,15.27
2023-04-28T22:08:57.548Z,15.32
2023-04-28T22:11:32.276Z,15.34
2023-04-28T22:14:07.964Z,15.32
2023-04-28T22:16:59.561Z,15.28
2023-04-28T22:19:36.333Z,15.30
2023-04-28T22:22:18.253Z,15.26
2023-04-28T22:25:05.666Z,14.98
2023-04-28T22:27:44.204Z,15.15
2023-04-28T22:30:25.740Z,15.32
2023-04-28T22:32:59.745Z,15.31
2023-04-28T22:35:34.043Z,15.29
2023-04-28T22:38:15.597Z,15.28
2023-04-28T22:40:56.681Z,15.23
2023-04-28T22:43:30.490Z,15.24
2023-04-28T22:46:04.536Z,15.23
2023-04-28T22:48:40.877Z,15.26
2023-04-28T22:51:17.832Z,15.25
2023-04-28T22:53:59.786Z,15.22
2023-04-28T22:56:33.959Z,15.15
2023-04-28T22:59:10.783Z,15.06
2023-04-28T23:01:51.347Z,15.13
2023-04-28T23:04:37.361Z,15.13
2023-04-28T23:07:12.839Z,15.04
2023-04-28T23:09:52.857Z,15.00
2023-04-28T23:12:30.725Z,14.97
2023-04-28T23:15:11.563Z,14.89
2023-04-28T23:17:55.198Z,14.94
2023-04-28T23:20:50.149Z,14.86
2023-04-28T23:23:34.490Z,14.87
2023-04-28T23:26:11.730Z,14.84
2023-04-28T23:28:50.946Z,14.80
2023-04-28T23:31:32.848Z,14.78
2023-04-28T23:34:11.369Z,14.74
2023-04-28T23:36:59.818Z,14.69
2023-04-28T23:39:38.827Z,14.69
2023-04-28T23:42:13.352Z,14.70
2023-04-28T23:44:50.646Z,14.65
2023-04-28T23:47:23.819Z,14.62
2023-04-28T23:50:03.316Z,14.61
2023-04-28T23:52:41.110Z,14.61
2023-04-28T23:55:19.387Z,14.52
2023-04-28T23:57:52.202Z,14.56
